Time;durP1;ratioP1;P1;durP2;ratioP2;P2;SDS_P1;SDS_P2;PMS_P1;PMS_P2;Temp;Humidity;BMP_temperature;BMP_pressure;BME280_temperature;BME280_humidity;BME280_pressure;Samples;Min_cycle;Max_cycle;Signal;HPM_P1;HPM_P2
2022/01/28 00:00:36;;;;;;;5.70;4.47;;;;;;;1.03;100.00;96943.94;5131093;27;24417;-73
2022/01/28 00:03:06;;;;;;;5.90;4.90;;;;;;;1.03;100.00;96940.53;5133287;27;24424;-74
2022/01/28 00:05:33;;;;;;;6.97;4.82;;;;;;;1.05;100.00;96944.78;5134493;27;24437;-74
2022/01/28 00:08:01;;;;;;;7.47;5.22;;;;;;;1.04;100.00;96940.53;5134425;27;24477;-74
2022/01/28 00:10:29;;;;;;;5.53;4.80;;;;;;;1.03;100.00;96938.81;5134592;27;24425;-74
2022/01/28 00:15:59;;;;;;;5.78;4.78;;;;;;;1.05;100.00;96939.69;5134292;27;24408;-74
2022/01/28 00:38:03;;;;;;;5.13;4.50;;;;;;;1.18;100.00;96971.03;5136250;27;24466;-74
2022/01/28 00:40:32;;;;;;;5.30;4.45;;;;;;;1.18;100.00;96963.41;5137664;27;24476;-74
2022/01/28 00:42:59;;;;;;;6.30;4.80;;;;;;;1.16;100.00;96976.16;5137605;27;24501;-74
2022/01/28 00:45:25;;;;;;;5.82;4.60;;;;;;;1.15;100.00;96987.25;5135367;27;24424;-74
2022/01/28 00:47:52;;;;;;;4.82;4.25;;;;;;;1.17;100.00;96984.66;5133877;27;24429;-74
2022/01/28 00:50:19;;;;;;;6.50;4.37;;;;;;;1.20;100.00;96980.41;5133915;27;24413;-75
2022/01/28 00:52:45;;;;;;;5.35;4.72;;;;;;;1.21;100.00;96988.91;5133704;27;24458;-75
2022/01/28 00:55:12;;;;;;;5.43;4.22;;;;;;;1.21;100.00;96994.84;5133713;27;25017;-75
2022/01/28 00:57:40;;;;;;;6.32;4.35;;;;;;;1.26;100.00;96987.19;5133428;27;24424;-75
2022/01/28 01:00:09;;;;;;;4.93;4.40;;;;;;;1.30;100.00;97003.28;5133387;27;24412;-74
2022/01/28 01:02:36;;;;;;;8.73;4.82;;;;;;;1.34;100.00;97000.72;5133631;27;24820;-75
2022/01/28 01:05:02;;;;;;;4.85;4.07;;;;;;;1.33;100.00;97008.38;5133315;27;24953;-74
2022/01/28 01:07:30;;;;;;;6.65;4.63;;;;;;;1.28;100.00;97000.75;5133198;27;24421;-74
2022/01/28 01:09:57;;;;;;;7.22;4.40;;;;;;;1.27;100.00;97005.88;5133307;27;24436;-74
2022/01/28 01:12:25;;;;;;;7.28;4.40;;;;;;;1.29;100.00;97005.00;5133026;27;24437;-74
2022/01/28 01:14:53;;;;;;;10.45;4.88;;;;;;;1.35;100.00;97012.63;5133060;27;24953;-74
2022/01/28 01:17:28;;;;;;;6.10;4.40;;;;;;;1.37;100.00;97017.72;5132952;27;24424;-73
2022/01/28 01:20:09;;;;;;;4.30;3.90;;;;;;;1.32;100.00;97027.13;5133188;27;24469;-74
2022/01/28 01:22:38;;;;;;;7.30;4.35;;;;;;;1.35;100.00;97027.09;5133074;27;24423;-74
2022/01/28 01:25:15;;;;;;;5.32;4.25;;;;;;;1.39;100.00;97028.78;5134974;27;24840;-74
2022/01/28 01:27:41;;;;;;;5.10;4.18;;;;;;;1.38;100.00;97033.03;5136970;27;24432;-74
2022/01/28 01:30:13;;;;;;;5.97;4.80;;;;;;;1.36;100.00;97034.72;5137226;27;24425;-74
2022/01/28 01:32:39;;;;;;;6.28;4.40;;;;;;;1.31;100.00;97043.28;5136787;27;24453;-74
2022/01/28 01:35:06;;;;;;;5.45;4.00;;;;;;;1.27;100.00;97044.16;5136862;27;24417;-74
2022/01/28 01:37:33;;;;;;;4.78;3.80;;;;;;;1.27;100.00;97050.13;5133548;27;24422;-75
2022/01/28 01:39:59;;;;;;;6.30;3.90;;;;;;;1.32;100.00;97047.53;5132608;27;24949;-74
2022/01/28 01:42:33;;;;;;;3.90;3.50;;;;;;;1.24;100.00;97045.03;5132671;27;24965;-74
2022/01/28 01:45:45;;;;;;;5.88;3.78;;;;;;;1.23;100.00;97048.44;5132531;27;24527;-74
2022/01/28 01:53:34;;;;;;;5.22;4.03;;;;;;;1.14;100.00;97049.31;5132448;27;24800;-73
2022/01/28 01:56:00;;;;;;;4.90;3.80;;;;;;;1.16;100.00;97057.81;5132006;27;24433;-73
2022/01/28 01:58:31;;;;;;;3.83;3.50;;;;;;;1.16;100.00;97065.47;5132630;27;24421;-73
2022/01/28 02:00:58;;;;;;;5.60;3.88;;;;;;;1.26;100.00;97057.75;5135912;27;24425;-74
2022/01/28 02:03:26;;;;;;;5.97;4.28;;;;;;;1.14;100.00;97064.63;5136571;27;24421;-74
2022/01/28 02:05:55;;;;;;;5.32;4.13;;;;;;;1.23;100.00;97061.19;5136015;27;24417;-74
2022/01/28 02:08:22;;;;;;;4.97;3.70;;;;;;;1.21;100.00;97073.94;5133045;27;24431;-74
2022/01/28 02:10:49;;;;;;;4.85;4.35;;;;;;;1.08;100.00;97071.50;5132087;27;24421;-75
2022/01/28 02:13:15;;;;;;;5.40;4.30;;;;;;;1.07;100.00;97060.41;5132225;27;24536;-75
2022/01/28 02:15:42;;;;;;;4.97;4.13;;;;;;;1.05;100.00;97064.69;5131980;27;24436;-75
2022/01/28 02:18:08;;;;;;;7.20;4.20;;;;;;;1.05;100.00;97069.78;5131907;27;24413;-75
2022/01/28 02:20:38;;;;;;;7.60;4.20;;;;;;;0.98;100.00;97067.28;5131970;27;24433;-75
2022/01/28 02:23:05;;;;;;;5.03;4.38;;;;;;;0.95;100.00;97068.13;5132861;27;24474;-75
2022/01/28 02:25:33;;;;;;;6.90;4.35;;;;;;;0.92;100.00;97078.34;5136144;27;24489;-74
2022/01/28 02:28:02;;;;;;;6.53;5.00;;;;;;;1.00;100.00;97066.41;5135805;27;24470;-74
2022/01/28 02:30:29;;;;;;;6.82;4.65;;;;;;;0.92;100.00;97083.44;5135640;27;24425;-74
2022/01/28 02:33:01;;;;;;;5.88;4.22;;;;;;;0.86;100.00;97079.22;5135580;27;25072;-74
2022/01/28 02:35:28;;;;;;;7.73;4.10;;;;;;;0.85;100.00;97074.13;5131831;27;24745;-75
2022/01/28 02:37:56;;;;;;;7.15;4.25;;;;;;;0.80;100.00;97066.50;5131680;27;24424;-74
2022/01/28 02:40:22;;;;;;;7.00;4.33;;;;;;;0.82;100.00;97074.16;5131666;27;24937;-74
2022/01/28 02:42:56;;;;;;;6.47;4.22;;;;;;;0.84;100.00;97069.88;5131567;27;24402;-74
2022/01/28 02:45:30;;;;;;;7.82;4.70;;;;;;;0.80;100.00;97074.13;5131784;27;24429;-75
2022/01/28 02:48:00;;;;;;;7.07;4.30;;;;;;;0.80;100.00;97081.78;5131474;27;24421;-75
2022/01/28 02:50:30;;;;;;;4.45;3.95;;;;;;;0.77;100.00;97075.84;5131443;27;24951;-74
2022/01/28 02:53:07;;;;;;;4.95;4.28;;;;;;;0.72;100.00;97083.53;5131573;27;24445;-74
2022/01/28 02:55:38;;;;;;;5.55;4.70;;;;;;;0.77;100.00;97088.59;5131694;27;24481;-74
2022/01/28 02:58:19;;;;;;;7.75;4.53;;;;;;;0.76;100.00;97092.00;5135028;27;24842;-75
2022/01/28 03:00:47;;;;;;;5.15;4.20;;;;;;;0.77;100.00;97094.53;5135102;27;24492;-74
2022/01/28 03:03:15;;;;;;;4.93;4.10;;;;;;;0.76;100.00;97092.00;5132147;27;24428;-74
2022/01/28 03:05:42;;;;;;;6.93;4.65;;;;;;;0.70;100.00;97080.13;5131187;27;24424;-74
2022/01/28 03:08:09;;;;;;;6.82;4.43;;;;;;;0.68;100.00;97089.50;5130562;27;24507;-74
2022/01/28 03:10:49;;;;;;;5.82;4.43;;;;;;;0.65;100.00;97085.22;5131466;27;24427;-74
2022/01/28 03:13:29;;;;;;;5.90;4.78;;;;;;;0.64;100.00;97086.09;5116350;27;24452;-73
2022/01/28 03:16:07;;;;;;;9.48;5.07;;;;;;;0.62;100.00;97090.34;5110863;28;24498;-73
2022/01/28 03:18:43;;;;;;;5.65;4.35;;;;;;;0.69;100.00;97104.75;5110758;28;25028;-73
2022/01/28 03:21:21;;;;;;;5.80;4.67;;;;;;;0.68;100.00;97090.31;5110805;28;24476;-74
2022/01/28 03:23:50;;;;;;;7.30;5.03;;;;;;;0.72;100.00;97104.75;5110631;28;24460;-74
2022/01/28 03:26:17;;;;;;;5.50;4.70;;;;;;;0.71;100.00;97102.22;5110195;28;24429;-74
2022/01/28 03:28:43;;;;;;;9.40;5.03;;;;;;;0.71;100.00;97104.78;5110876;28;24436;-73
2022/01/28 03:31:10;;;;;;;6.38;4.82;;;;;;;0.69;100.00;97109.88;5110672;28;24414;-74
2022/01/28 03:33:37;;;;;;;6.78;5.20;;;;;;;0.71;100.00;97122.63;5110606;28;24938;-75
2022/01/28 03:36:07;;;;;;;7.20;5.53;;;;;;;0.71;100.00;97126.03;5118590;28;24436;-74
2022/01/28 03:38:33;;;;;;;6.10;5.50;;;;;;;0.74;100.00;97112.41;5125049;28;24517;-74
2022/01/28 03:41:01;;;;;;;8.25;5.15;;;;;;;0.77;100.00;97116.66;5132089;27;24436;-74
2022/01/28 03:43:27;;;;;;;7.53;5.60;;;;;;;0.81;100.00;97125.97;5135220;27;24497;-73
2022/01/28 03:45:54;;;;;;;9.87;5.27;;;;;;;0.86;100.00;97129.38;5134809;27;24425;-73
2022/01/28 03:48:20;;;;;;;6.63;5.25;;;;;;;0.88;100.00;97125.97;5134711;27;24972;-73
2022/01/28 03:50:47;;;;;;;7.25;5.20;;;;;;;0.92;100.00;97135.28;5134719;27;24778;-75
2022/01/28 03:53:13;;;;;;;11.57;5.65;;;;;;;0.87;100.00;97137.03;5134543;27;24973;-74
2022/01/28 03:55:40;;;;;;;6.57;5.50;;;;;;;0.92;100.00;97140.41;5134543;27;24447;-75
2022/01/28 03:58:07;;;;;;;7.75;5.53;;;;;;;0.92;100.00;97142.94;5134657;27;24420;-75
2022/01/28 04:00:34;;;;;;;7.67;5.17;;;;;;;0.96;100.00;97147.22;5134683;27;24585;-75
2022/01/28 04:03:08;;;;;;;8.77;6.30;;;;;;;0.94;100.00;97158.28;5134520;27;24412;-74
2022/01/28 04:13:54;;;;;;;9.40;5.60;;;;;;;0.86;100.00;97163.41;5134342;27;24474;-73
2022/01/28 04:16:32;;;;;;;7.13;6.03;;;;;;;0.83;100.00;97158.28;5134061;27;24485;-75
2022/01/28 04:19:01;;;;;;;8.80;6.00;;;;;;;0.86;100.00;97172.75;5134235;27;25137;-74
2022/01/28 04:21:28;;;;;;;14.55;6.45;;;;;;;0.87;100.00;97165.09;5134536;27;24436;-73
2022/01/28 04:23:54;;;;;;;9.55;5.90;;;;;;;0.87;100.00;97161.69;5134463;27;24536;-73
2022/01/28 04:26:21;;;;;;;6.90;5.55;;;;;;;0.86;100.00;97165.09;5133782;27;24800;-73
2022/01/28 04:28:47;;;;;;;8.80;5.93;;;;;;;0.83;100.00;97165.94;5134209;27;24436;-74
2022/01/28 04:31:15;;;;;;;8.57;6.27;;;;;;;0.84;100.00;97177.00;5130321;27;24881;-74
2022/01/28 04:33:41;;;;;;;8.65;6.07;;;;;;;0.82;100.00;97169.34;5114173;27;24456;-74
2022/01/28 04:36:11;;;;;;;8.32;6.25;;;;;;;0.75;100.00;97182.97;5113511;28;24428;-73
2022/01/28 04:38:44;;;;;;;9.25;6.20;;;;;;;0.72;100.00;97183.81;5113311;28;24428;-73
2022/01/28 04:41:18;;;;;;;6.65;5.45;;;;;;;0.66;100.00;97182.97;5113557;28;24417;-73
2022/01/28 04:43:49;;;;;;;11.30;6.10;;;;;;;0.72;100.00;97194.00;5113658;28;24417;-73
2022/01/28 04:46:27;;;;;;;9.50;6.63;;;;;;;0.71;100.00;97197.44;5112981;28;24820;-73
2022/01/28 04:49:00;;;;;;;10.55;6.10;;;;;;;0.71;100.00;97202.53;5113191;28;24417;-73
2022/01/28 04:51:44;;;;;;;9.65;6.80;;;;;;;0.72;100.00;97204.22;5113110;28;24427;-73
2022/01/28 04:54:24;;;;;;;11.13;6.93;;;;;;;0.72;100.00;97214.41;5113418;28;24406;-74
2022/01/28 04:56:58;;;;;;;8.88;6.78;;;;;;;0.69;100.00;97213.56;5112469;28;24426;-74
2022/01/28 04:59:46;;;;;;;9.13;7.10;;;;;;;0.73;100.00;97230.56;5126843;22;24597;-74
2022/01/28 05:02:38;;;;;;;9.00;6.43;;;;;;;0.67;100.00;97226.31;5092605;28;24775;-74
2022/01/28 05:05:24;;;;;;;10.75;6.57;;;;;;;0.65;100.00;97210.16;5092420;28;24957;-75
2022/01/28 05:08:10;;;;;;;7.78;6.00;;;;;;;0.68;100.00;97217.81;5092253;28;25003;-74
2022/01/28 05:10:59;;;;;;;7.97;5.95;;;;;;;0.65;100.00;97222.91;5092510;28;24430;-74
2022/01/28 05:14:06;;;;;;;9.10;6.70;;;;;;;0.62;100.00;97211.88;5092387;28;24480;-76
2022/01/28 05:17:00;;;;;;;11.10;6.23;;;;;;;0.65;100.00;97219.53;5091598;28;24534;-74
2022/01/28 05:25:42;;;;;;;10.80;6.20;;;;;;;0.58;100.00;97211.03;5092104;28;24502;-76
2022/01/28 05:28:01;;;;;;;8.65;6.18;;;;;;;0.60;100.00;97214.44;5091738;28;24509;-76
2022/01/28 05:30:28;;;;;;;8.85;6.13;;;;;;;0.58;100.00;97210.19;5091796;28;24970;-76
2022/01/28 05:32:54;;;;;;;10.00;6.30;;;;;;;0.56;100.00;97211.91;5091883;28;24445;-75
2022/01/28 05:35:22;;;;;;;7.55;5.53;;;;;;;0.56;100.00;97215.28;5091887;28;24414;-76
2022/01/28 05:37:49;;;;;;;8.55;5.85;;;;;;;0.59;100.00;97205.06;5091653;28;25020;-76
2022/01/28 05:40:15;;;;;;;8.07;5.68;;;;;;;0.46;100.00;97211.03;5091996;28;24434;-74
2022/01/28 05:42:42;;;;;;;8.82;5.45;;;;;;;0.47;100.00;97212.72;5092055;28;24413;-74
2022/01/28 05:45:09;;;;;;;10.73;5.33;;;;;;;0.47;100.00;97218.66;5091701;28;24414;-75
2022/01/28 05:47:36;;;;;;;7.75;5.45;;;;;;;0.43;100.00;97229.72;5091333;28;24425;-74
2022/01/28 05:50:03;;;;;;;8.63;5.80;;;;;;;0.46;100.00;97231.44;5091791;28;24491;-74
2022/01/28 05:52:32;;;;;;;8.77;5.68;;;;;;;0.42;100.00;97238.22;5091690;28;24445;-74
2022/01/28 05:54:58;;;;;;;9.93;6.40;;;;;;;0.43;100.00;97228.88;5091887;28;24967;-74
2022/01/28 05:57:25;;;;;;;7.07;6.05;;;;;;;0.43;100.00;97239.91;5091511;28;24783;-76
2022/01/28 05:59:51;;;;;;;10.27;7.78;;;;;;;0.42;100.00;97238.22;5091111;28;24434;-74
2022/01/28 06:02:18;;;;;;;10.57;7.55;;;;;;;0.40;100.00;97246.69;5091408;28;24518;-73
2022/01/28 06:04:45;;;;;;;8.88;6.32;;;;;;;0.43;100.00;97251.81;5090667;28;24513;-74
2022/01/28 06:07:12;;;;;;;11.27;8.48;;;;;;;0.38;100.00;97250.97;5091444;28;24479;-74
2022/01/28 06:09:40;;;;;;;9.27;5.95;;;;;;;0.35;100.00;97253.50;5092087;28;24433;-74
2022/01/28 06:12:07;;;;;;;11.93;8.30;;;;;;;0.33;100.00;97250.09;5091503;28;24800;-74
2022/01/28 06:14:34;;;;;;;8.55;5.80;;;;;;;0.35;100.00;97248.41;5091389;28;24422;-74
2022/01/28 06:17:00;;;;;;;8.65;6.28;;;;;;;0.38;100.00;97263.72;5090449;28;24414;-74
2022/01/28 06:19:27;;;;;;;10.80;6.68;;;;;;;0.38;100.00;97266.25;5090145;28;24453;-74
2022/01/28 06:21:53;;;;;;;10.70;6.85;;;;;;;0.39;100.00;97289.19;5090978;28;24475;-74
2022/01/28 06:24:20;;;;;;;8.98;6.63;;;;;;;0.42;100.00;97291.75;5094147;28;24449;-75
2022/01/28 06:26:48;;;;;;;9.40;6.55;;;;;;;0.51;100.00;97300.25;5094118;28;24456;-74
2022/01/28 06:29:15;;;;;;;10.18;6.43;;;;;;;0.51;100.00;97290.06;5093244;28;24480;-76
2022/01/28 06:31:41;;;;;;;8.40;6.63;;;;;;;0.54;100.00;97288.34;5090922;28;24410;-75
2022/01/28 06:34:08;;;;;;;10.13;7.13;;;;;;;0.61;100.00;97284.13;5090465;28;25210;-75
2022/01/28 06:36:35;;;;;;;9.38;6.82;;;;;;;0.59;100.00;97303.66;5073074;28;24986;-75
2022/01/28 06:39:01;;;;;;;10.93;7.43;;;;;;;0.62;100.00;97317.25;5070840;28;24975;-76
2022/01/28 06:41:30;;;;;;;10.48;7.45;;;;;;;0.58;100.00;97323.19;5070245;28;24437;-76
2022/01/28 06:43:58;;;;;;;10.20;7.03;;;;;;;0.59;100.00;97322.34;5069752;28;24434;-76
2022/01/28 06:46:26;;;;;;;12.15;7.32;;;;;;;0.62;100.00;97318.94;5089307;28;24803;-76
2022/01/28 06:48:52;;;;;;;12.77;7.38;;;;;;;0.54;100.00;97326.59;5090737;28;24514;-77
2022/01/28 06:51:19;;;;;;;11.05;7.60;;;;;;;0.56;100.00;97336.81;5090444;28;24425;-77
2022/01/28 06:53:45;;;;;;;13.55;8.00;;;;;;;0.51;100.00;97334.22;5074006;28;24447;-76
2022/01/28 06:56:12;;;;;;;9.38;6.85;;;;;;;0.54;100.00;97336.78;5069581;28;24962;-77
2022/01/28 06:58:38;;;;;;;10.80;6.97;;;;;;;0.50;100.00;97339.34;5070237;28;24473;-76
2022/01/28 07:01:06;;;;;;;8.52;6.80;;;;;;;0.45;100.00;97352.09;5086936;28;24438;-76
2022/01/28 07:03:32;;;;;;;9.95;6.93;;;;;;;0.41;100.00;97366.50;5090593;28;24426;-77
2022/01/28 07:05:59;;;;;;;10.73;8.48;;;;;;;0.38;100.00;97356.31;5078016;28;24803;-76
2022/01/28 07:08:27;;;;;;;12.10;8.20;;;;;;;0.40;100.00;97366.50;5066625;28;24440;-76
2022/01/28 07:10:54;;;;;;;11.33;8.47;;;;;;;0.34;100.00;97359.69;5050213;28;24427;-74
2022/01/28 07:13:20;;;;;;;8.85;7.07;;;;;;;0.35;100.00;97358.00;5049987;28;24442;-75
2022/01/28 07:15:48;;;;;;;14.15;7.70;;;;;;;0.30;100.00;97363.09;5051674;28;24777;-76
2022/01/28 07:18:16;;;;;;;12.40;7.18;;;;;;;0.33;100.00;97357.13;5053816;28;24442;-76
2022/01/28 07:20:42;;;;;;;13.45;7.15;;;;;;;0.35;100.00;97363.09;5053961;28;24817;-76
2022/01/28 07:23:09;;;;;;;11.63;7.37;;;;;;;0.39;100.00;97367.34;5065385;28;24423;-76
2022/01/28 07:25:35;;;;;;;13.30;7.55;;;;;;;0.33;100.00;97363.06;5073716;28;24441;-76
2022/01/28 07:28:02;;;;;;;14.10;6.57;;;;;;;0.45;100.00;97375.03;5073567;28;24496;-76
2022/01/28 07:30:28;;;;;;;9.77;7.63;;;;;;;0.45;100.00;97377.56;5073112;28;24441;-77
2022/01/28 07:32:55;;;;;;;11.68;7.85;;;;;;;0.43;100.00;97379.25;5073869;28;24550;-76
2022/01/28 07:35:23;;;;;;;8.88;7.38;;;;;;;0.47;100.00;97380.97;5067011;28;24793;-76
2022/01/28 07:37:49;;;;;;;10.50;7.28;;;;;;;0.54;100.00;97389.47;5053357;28;24782;-77
2022/01/28 07:40:16;;;;;;;10.55;7.47;;;;;;;0.54;100.00;97397.97;5053348;28;24841;-77
2022/01/28 07:42:42;;;;;;;8.63;6.93;;;;;;;0.66;100.00;97395.44;5053848;28;24446;-77
2022/01/28 07:45:11;;;;;;;10.73;7.40;;;;;;;0.76;100.00;97393.78;5061993;28;24438;-77
2022/01/28 07:47:38;;;;;;;15.82;7.80;;;;;;;0.71;100.00;97401.44;5072023;28;24470;-77
2022/01/28 07:50:05;;;;;;;8.05;6.63;;;;;;;0.80;100.00;97407.38;5094151;28;24437;-76
2022/01/28 07:52:34;;;;;;;9.13;6.30;;;;;;;0.90;100.00;97404.00;5093464;28;24835;-75
2022/01/28 07:55:01;;;;;;;11.48;7.05;;;;;;;0.89;100.00;97400.63;5091675;28;24429;-77
2022/01/28 07:57:27;;;;;;;9.25;6.93;;;;;;;1.01;100.00;97386.16;5071558;28;24415;-77
2022/01/28 07:59:54;;;;;;;8.13;6.50;;;;;;;0.93;100.00;97391.25;5069272;28;24449;-76
2022/01/28 08:02:20;;;;;;;9.52;6.55;;;;;;;1.15;100.00;97394.66;5073135;28;24434;-76
2022/01/28 08:04:47;;;;;;;9.50;6.68;;;;;;;1.27;100.00;97398.94;5074613;28;24672;-77
2022/01/28 08:07:13;;;;;;;10.20;6.45;;;;;;;1.56;100.00;97407.44;5073749;28;24888;-77
2022/01/28 08:09:41;;;;;;;9.23;6.53;;;;;;;1.67;100.00;97399.75;5072593;28;24480;-77
2022/01/28 08:12:08;;;;;;;9.60;6.57;;;;;;;1.77;100.00;97401.41;5073607;28;24504;-77
2022/01/28 08:14:35;;;;;;;11.25;6.32;;;;;;;1.68;100.00;97396.34;5068602;28;24470;-77
2022/01/28 08:17:01;;;;;;;9.27;6.55;;;;;;;1.56;100.00;97409.09;5052958;28;24893;-76
2022/01/28 08:19:28;;;;;;;18.65;6.78;;;;;;;1.51;100.00;97410.81;5052766;28;24435;-76
2022/01/28 08:21:54;;;;;;;11.70;6.60;;;;;;;1.73;100.00;97416.75;5054154;28;24856;-76
2022/01/28 08:24:20;;;;;;;9.55;6.32;;;;;;;1.69;100.00;97418.47;5064930;28;24955;-76
2022/01/28 08:26:49;;;;;;;8.25;6.32;;;;;;;1.67;100.00;97425.28;5071917;28;24430;-76
2022/01/28 08:29:16;;;;;;;12.43;6.78;;;;;;;1.81;100.00;97420.97;5072913;28;24469;-77
2022/01/28 08:31:43;;;;;;;9.85;6.50;;;;;;;1.93;100.00;97418.44;5072810;28;24435;-76
2022/01/28 08:34:09;;;;;;;9.30;6.63;;;;;;;2.07;100.00;97422.63;5072554;28;24443;-77
2022/01/28 08:36:36;;;;;;;9.75;6.00;;;;;;;2.07;100.00;97420.91;5072998;28;24430;-77
2022/01/28 08:39:05;;;;;;;9.80;6.90;;;;;;;1.91;100.00;97427.78;5066740;28;25009;-77
2022/01/28 08:41:33;;;;;;;8.80;5.70;;;;;;;1.68;100.00;97432.09;5073471;28;24565;-77
2022/01/28 08:44:01;;;;;;;9.75;6.30;;;;;;;1.73;100.00;97444.84;5073758;28;24411;-78
2022/01/28 08:46:27;;;;;;;9.05;5.90;;;;;;;1.64;100.00;97451.69;5072188;28;24492;-77
2022/01/28 08:48:54;;;;;;;9.30;5.78;;;;;;;1.59;100.00;97445.69;5072569;28;24434;-77
2022/01/28 08:51:20;;;;;;;10.10;6.82;;;;;;;1.63;100.00;97444.00;5072611;28;24489;-78
2022/01/28 08:53:46;;;;;;;13.45;6.28;;;;;;;1.56;100.00;97444.84;5071964;28;24457;-73
2022/01/28 08:56:13;;;;;;;9.80;6.30;;;;;;;1.48;100.00;97446.56;5072009;28;24426;-77
2022/01/28 08:58:40;;;;;;;8.63;6.20;;;;;;;1.55;100.00;97454.22;5071942;28;24951;-77
2022/01/28 09:01:07;;;;;;;10.95;6.25;;;;;;;1.55;100.00;97456.78;5088603;28;24493;-76
2022/01/28 09:03:34;;;;;;;9.90;5.68;;;;;;;1.50;100.00;97447.44;5092636;28;24422;-76
2022/01/28 09:06:00;;;;;;;11.40;6.60;;;;;;;1.53;100.00;97448.28;5079832;28;24986;-75
2022/01/28 09:08:27;;;;;;;12.13;5.78;;;;;;;1.57;100.00;97451.69;5066003;28;25050;-76
2022/01/28 09:10:59;;;;;;;9.73;5.53;;;;;;;1.62;100.00;97455.91;5051802;28;24988;-76
2022/01/28 09:13:30;;;;;;;10.30;5.80;;;;;;;1.65;100.00;97452.53;5051940;28;24478;-75
2022/01/28 09:15:58;;;;;;;17.13;6.70;;;;;;;1.69;100.00;97451.66;5066580;28;24502;-74
2022/01/28 09:18:26;;;;;;;10.13;6.20;;;;;;;1.67;100.00;97443.16;5072051;28;24421;-74
2022/01/28 09:20:53;;;;;;;10.68;5.25;;;;;;;1.96;100.00;97443.09;5071847;28;24840;-74
2022/01/28 09:23:20;;;;;;;12.25;5.90;;;;;;;2.47;100.00;97446.34;5071950;28;24418;-74
2022/01/28 09:25:46;;;;;;;11.38;5.80;;;;;;;2.63;100.00;97450.56;5071384;28;24517;-74
2022/01/28 09:28:13;;;;;;;9.80;5.60;;;;;;;2.73;100.00;97441.13;5079169;28;24515;-75
2022/01/28 09:30:39;;;;;;;8.55;5.55;;;;;;;2.73;100.00;97427.47;5091383;28;24442;-75
2022/01/28 09:33:06;;;;;;;8.55;4.70;;;;;;;2.59;100.00;97436.06;5091772;28;24414;-75
2022/01/28 09:35:35;;;;;;;5.30;4.22;;;;;;;2.57;100.00;97440.34;5075551;28;24428;-75
2022/01/28 09:38:03;;;;;;;8.35;4.95;;;;;;;2.62;100.00;97446.28;5051442;28;24473;-76
2022/01/28 09:40:30;;;;;;;7.27;4.60;;;;;;;2.55;100.00;97449.72;5087031;28;25071;-75
2022/01/28 09:42:56;;;;;;;7.57;4.30;;;;;;;2.57;100.00;97448.03;5091328;28;24429;-75
2022/01/28 09:45:24;;;;;;;6.90;4.18;;;;;;;2.54;100.00;97459.97;5091167;28;24444;-74
2022/01/28 09:47:56;;;;;;;6.05;4.05;;;;;;;2.85;100.00;97453.00;5091657;28;24425;-75
2022/01/28 09:50:25;;;;;;;7.05;3.85;;;;;;;2.76;100.00;97451.34;5091324;28;24430;-77
2022/01/28 09:52:53;;;;;;;6.25;4.13;;;;;;;2.98;100.00;97464.03;5090446;28;24434;-75
2022/01/28 09:55:21;;;;;;;7.40;3.97;;;;;;;2.81;100.00;97448.75;5073978;28;24446;-75
2022/01/28 09:57:51;;;;;;;8.90;4.18;;;;;;;2.83;100.00;97457.28;5067071;28;24447;-75
2022/01/28 10:00:20;;;;;;;9.77;3.95;;;;;;;3.08;100.00;97453.72;5061762;28;24489;-75
2022/01/28 10:02:48;;;;;;;7.72;3.78;;;;;;;3.50;99.16;97454.28;5070629;28;24968;-75
2022/01/28 10:05:18;;;;;;;4.93;3.45;;;;;;;3.63;99.05;97457.56;5070690;28;24450;-75
2022/01/28 10:08:02;;;;;;;10.32;4.00;;;;;;;3.62;99.37;97472.09;5066916;28;24865;-74
2022/01/28 10:10:42;;;;;;;49.15;8.77;;;;;;;3.75;99.95;97472.00;5051660;28;24442;-72
2022/01/28 10:13:10;;;;;;;22.45;5.60;;;;;;;3.43;99.77;97470.56;5051936;28;24415;-75
2022/01/28 10:15:37;;;;;;;10.27;4.33;;;;;;;3.45;97.63;97466.28;5063613;28;24497;-76
2022/01/28 10:18:04;;;;;;;9.53;4.13;;;;;;;3.31;99.36;97478.34;5070335;28;24519;-75
2022/01/28 10:20:30;;;;;;;29.52;6.35;;;;;;;3.44;99.19;97491.88;5070265;28;25003;-76
2022/01/28 10:22:59;;;;;;;12.73;3.65;;;;;;;3.19;97.61;97486.94;5070444;28;24473;-76
2022/01/28 10:25:32;;;;;;;21.40;5.53;;;;;;;3.20;100.00;97486.06;5070540;28;24481;-74
2022/01/28 10:28:00;;;;;;;9.20;3.95;;;;;;;3.18;100.00;97490.34;5070588;28;24431;-76
2022/01/28 10:30:27;;;;;;;6.57;3.28;;;;;;;3.02;100.00;97476.78;5058939;28;24438;-74
2022/01/28 10:33:14;;;;;;;7.13;3.50;;;;;;;2.94;100.00;97493.91;5050439;28;24486;-74
2022/01/28 10:35:49;;;;;;;6.90;3.73;;;;;;;3.05;100.00;97483.63;5058411;28;24451;-74
2022/01/28 10:38:28;;;;;;;36.58;7.25;;;;;;;3.12;100.00;97485.28;5064438;28;24430;-74
2022/01/28 10:41:08;;;;;;;7.35;3.90;;;;;;;3.39;100.00;97479.13;5050665;28;24435;-74
2022/01/28 10:43:42;;;;;;;6.72;3.75;;;;;;;3.16;100.00;97481.84;5050236;28;24958;-75
2022/01/28 10:46:09;;;;;;;6.97;3.45;;;;;;;2.72;100.00;97467.56;5066793;28;24477;-75
2022/01/28 10:48:49;;;;;;;6.35;3.65;;;;;;;2.66;100.00;97467.59;5060671;28;24431;-74
2022/01/28 10:51:16;;;;;;;6.03;2.92;;;;;;;2.77;99.31;97467.53;5049671;28;24423;-75
2022/01/28 10:53:43;;;;;;;9.77;4.40;;;;;;;3.07;100.00;97459.69;5062856;28;24440;-75
2022/01/28 10:56:13;;;;;;;7.57;3.45;;;;;;;3.26;99.27;97465.53;5070307;28;24433;-75
2022/01/28 10:58:39;;;;;;;6.60;3.28;;;;;;;3.18;97.69;97456.22;5070816;28;24780;-75
2022/01/28 11:01:06;;;;;;;6.55;3.47;;;;;;;3.23;100.00;97463.03;5070400;28;24435;-75
2022/01/28 11:03:36;;;;;;;5.95;3.28;;;;;;;3.07;100.00;97457.13;5070635;28;24423;-75
2022/01/28 11:06:04;;;;;;;6.93;3.43;;;;;;;3.23;99.09;97468.13;5069403;28;24434;-75
2022/01/28 11:08:32;;;;;;;7.10;3.60;;;;;;;3.28;98.41;97456.16;5070229;28;24485;-75
2022/01/28 11:11:00;;;;;;;5.95;3.70;;;;;;;3.32;98.92;97446.72;5069906;28;24513;-75
2022/01/28 11:13:28;;;;;;;5.03;3.47;;;;;;;3.31;98.66;97457.84;5070092;28;24421;-75
2022/01/28 11:15:55;;;;;;;7.57;3.10;;;;;;;3.22;100.00;97468.13;5069412;28;24521;-75
2022/01/28 11:18:23;;;;;;;7.60;3.63;;;;;;;3.25;98.98;97463.84;5069727;28;24434;-75
2022/01/28 11:20:52;;;;;;;7.28;3.97;;;;;;;3.20;100.00;97469.88;5069141;28;24415;-75
2022/01/28 11:23:27;;;;;;;5.68;3.47;;;;;;;3.40;98.73;97471.41;5069718;28;24437;-75
2022/01/28 11:26:05;;;;;;;5.53;3.20;;;;;;;3.33;98.25;97468.91;5069950;28;24943;-75
2022/01/28 11:28:41;;;;;;;9.73;3.75;;;;;;;3.32;100.00;97473.19;5070127;28;24426;-75
2022/01/28 11:31:08;;;;;;;8.73;3.85;;;;;;;3.10;100.00;97476.75;5052227;28;24470;-75
2022/01/28 11:33:44;;;;;;;11.52;4.68;;;;;;;2.85;100.00;97474.31;5050043;28;24820;-74
2022/01/28 11:36:11;;;;;;;11.23;3.45;;;;;;;2.80;100.00;97476.06;5062414;28;24513;-76
2022/01/28 11:38:41;;;;;;;7.20;3.13;;;;;;;2.83;100.00;97475.19;5064661;28;24431;-75
2022/01/28 11:41:13;;;;;;;6.82;3.50;;;;;;;2.95;100.00;97472.56;5048718;28;24526;-76
2022/01/28 11:43:52;;;;;;;6.93;4.00;;;;;;;3.08;100.00;97468.25;5049376;28;24438;-75
2022/01/28 11:46:27;;;;;;;14.13;3.97;;;;;;;3.25;99.36;97470.69;5067411;28;24435;-75
2022/01/28 11:49:24;;;;;;;9.90;3.95;;;;;;;3.11;98.45;97463.06;5069622;28;24422;-75
2022/01/28 11:51:51;;;;;;;5.88;3.13;;;;;;;3.06;100.00;97452.88;5069494;28;24419;-75
2022/01/28 11:54:21;;;;;;;5.10;3.17;;;;;;;3.16;98.83;97451.13;5073346;28;25026;-75
2022/01/28 11:57:26;;;;;;;6.88;3.25;;;;;;;3.00;96.47;97459.72;5074443;28;24426;-74
2022/01/28 12:00:20;;;;;;;5.72;2.85;;;;;;;3.18;97.52;97454.50;5063863;28;24509;-75
2022/01/28 12:02:49;;;;;;;9.18;3.05;;;;;;;2.98;95.37;97434.16;5071917;28;24438;-75
2022/01/28 12:05:43;;;;;;;6.82;2.83;;;;;;;3.02;97.46;97435.84;5067634;28;24431;-75
2022/01/28 12:08:12;;;;;;;10.43;2.72;;;;;;;3.01;95.14;97446.09;5053439;28;24443;-75
2022/01/28 12:10:42;;;;;;;6.97;2.92;;;;;;;2.96;94.82;97451.22;5085530;28;24480;-77
2022/01/28 12:13:12;;;;;;;6.10;3.50;;;;;;;2.82;97.48;97448.75;5093640;28;24484;-75
2022/01/28 12:16:11;;;;;;;7.38;3.40;;;;;;;2.74;98.48;97447.94;5093176;28;24442;-75
2022/01/28 12:19:02;;;;;;;6.30;3.37;;;;;;;2.72;99.67;97452.22;5093392;28;24525;-75
2022/01/28 12:21:31;;;;;;;9.65;4.15;;;;;;;2.70;100.00;97453.91;5074041;28;24488;-75
2022/01/28 12:24:31;;;;;;;9.77;4.00;;;;;;;2.78;100.00;97441.09;5052795;28;24422;-75
2022/01/28 12:27:00;;;;;;;8.88;3.88;;;;;;;2.66;100.00;97432.63;5052704;28;24426;-74